sensor_id;sensor_type;location;lat;lon;timestamp;P1;durP1;ratioP1;P2;durP2;ratioP2
59167;SDS011;44948;55.046;73.266;2023-03-25T00:02:29;23.05;;;8.20;;
59167;SDS011;44948;55.046;73.266;2023-03-25T00:05:31;17.17;;;7.85;;
59167;SDS011;44948;55.046;73.266;2023-03-25T00:08:34;16.63;;;7.88;;
59167;SDS011;44948;55.046;73.266;2023-03-25T00:11:48;16.88;;;8.48;;
59167;SDS011;44948;55.046;73.266;2023-03-25T00:14:51;17.80;;;8.25;;
59167;SDS011;44948;55.046;73.266;2023-03-25T00:17:56;20.23;;;8.43;;
59167;SDS011;44948;55.046;73.266;2023-03-25T00:21:03;14.98;;;7.90;;
59167;SDS011;44948;55.046;73.266;2023-03-25T00:24:07;17.00;;;8.02;;
59167;SDS011;44948;55.046;73.266;2023-03-25T00:27:10;24.02;;;8.93;;
59167;SDS011;44948;55.046;73.266;2023-03-25T00:30:15;19.45;;;9.00;;
59167;SDS011;44948;55.046;73.266;2023-03-25T00:33:19;18.95;;;8.05;;
59167;SDS011;44948;55.046;73.266;2023-03-25T00:36:23;18.23;;;8.57;;
59167;SDS011;44948;55.046;73.266;2023-03-25T00:39:26;16.88;;;8.18;;
59167;SDS011;44948;55.046;73.266;2023-03-25T00:42:29;21.48;;;9.15;;
59167;SDS011;44948;55.046;73.266;2023-03-25T00:45:31;18.15;;;8.32;;
59167;SDS011;44948;55.046;73.266;2023-03-25T00:48:35;22.02;;;9.10;;
59167;SDS011;44948;55.046;73.266;2023-03-25T00:51:38;21.35;;;8.93;;
59167;SDS011;44948;55.046;73.266;2023-03-25T00:54:41;25.77;;;9.90;;
59167;SDS011;44948;55.046;73.266;2023-03-25T00:57:44;15.13;;;9.00;;
59167;SDS011;44948;55.046;73.266;2023-03-25T01:00:47;19.33;;;8.98;;
59167;SDS011;44948;55.046;73.266;2023-03-25T01:03:50;19.58;;;9.75;;
59167;SDS011;44948;55.046;73.266;2023-03-25T01:07:00;16.88;;;8.77;;
59167;SDS011;44948;55.046;73.266;2023-03-25T01:10:14;20.17;;;9.45;;
59167;SDS011;44948;55.046;73.266;2023-03-25T01:13:16;20.02;;;9.45;;
59167;SDS011;44948;55.046;73.266;2023-03-25T01:16:19;24.23;;;9.85;;
59167;SDS011;44948;55.046;73.266;2023-03-25T01:19:21;17.42;;;8.55;;
59167;SDS011;44948;55.046;73.266;2023-03-25T01:22:24;21.17;;;9.05;;
59167;SDS011;44948;55.046;73.266;2023-03-25T01:25:26;21.75;;;9.38;;
59167;SDS011;44948;55.046;73.266;2023-03-25T01:28:29;20.48;;;9.23;;
59167;SDS011;44948;55.046;73.266;2023-03-25T01:31:32;21.42;;;9.25;;
59167;SDS011;44948;55.046;73.266;2023-03-25T01:34:37;20.67;;;9.40;;
59167;SDS011;44948;55.046;73.266;2023-03-25T01:37:39;21.48;;;8.52;;
59167;SDS011;44948;55.046;73.266;2023-03-25T01:40:45;15.77;;;8.15;;
59167;SDS011;44948;55.046;73.266;2023-03-25T01:44:01;18.05;;;8.60;;
59167;SDS011;44948;55.046;73.266;2023-03-25T01:47:19;20.23;;;9.65;;
59167;SDS011;44948;55.046;73.266;2023-03-25T01:50:23;17.27;;;8.15;;
59167;SDS011;44948;55.046;73.266;2023-03-25T01:53:30;19.05;;;9.18;;
59167;SDS011;44948;55.046;73.266;2023-03-25T01:56:35;18.92;;;8.60;;
59167;SDS011;44948;55.046;73.266;2023-03-25T01:59:42;17.60;;;8.67;;
59167;SDS011;44948;55.046;73.266;2023-03-25T02:02:45;19.05;;;8.52;;
59167;SDS011;44948;55.046;73.266;2023-03-25T02:05:55;19.00;;;8.80;;
59167;SDS011;44948;55.046;73.266;2023-03-25T02:09:06;19.13;;;8.32;;
59167;SDS011;44948;55.046;73.266;2023-03-25T02:12:12;23.05;;;8.80;;
59167;SDS011;44948;55.046;73.266;2023-03-25T02:15:15;16.33;;;8.35;;
59167;SDS011;44948;55.046;73.266;2023-03-25T02:31:48;14.02;;;7.70;;
59167;SDS011;44948;55.046;73.266;2023-03-25T02:35:27;16.48;;;9.10;;
59167;SDS011;44948;55.046;73.266;2023-03-25T02:45:49;25.77;;;10.13;;
59167;SDS011;44948;55.046;73.266;2023-03-25T02:49:00;20.40;;;9.18;;
59167;SDS011;44948;55.046;73.266;2023-03-25T02:55:18;25.27;;;10.98;;
59167;SDS011;44948;55.046;73.266;2023-03-25T02:58:23;26.33;;;10.02;;
59167;SDS011;44948;55.046;73.266;2023-03-25T03:01:28;24.60;;;10.15;;
59167;SDS011;44948;55.046;73.266;2023-03-25T03:04:30;22.88;;;11.27;;
59167;SDS011;44948;55.046;73.266;2023-03-25T03:07:33;22.40;;;11.10;;
59167;SDS011;44948;55.046;73.266;2023-03-25T03:20:39;20.25;;;9.55;;
59167;SDS011;44948;55.046;73.266;2023-03-25T03:23:59;17.45;;;8.77;;
59167;SDS011;44948;55.046;73.266;2023-03-25T03:27:26;23.50;;;10.52;;
59167;SDS011;44948;55.046;73.266;2023-03-25T03:30:41;15.90;;;8.85;;
59167;SDS011;44948;55.046;73.266;2023-03-25T03:33:52;22.65;;;10.10;;
59167;SDS011;44948;55.046;73.266;2023-03-25T03:37:01;19.40;;;9.60;;
59167;SDS011;44948;55.046;73.266;2023-03-25T03:40:12;22.15;;;11.57;;
59167;SDS011;44948;55.046;73.266;2023-03-25T03:43:32;18.50;;;8.23;;
59167;SDS011;44948;55.046;73.266;2023-03-25T03:46:40;25.27;;;11.48;;
59167;SDS011;44948;55.046;73.266;2023-03-25T03:50:10;29.07;;;15.50;;
59167;SDS011;44948;55.046;73.266;2023-03-25T03:53:40;31.85;;;13.32;;
59167;SDS011;44948;55.046;73.266;2023-03-25T03:56:55;33.22;;;17.13;;
59167;SDS011;44948;55.046;73.266;2023-03-25T04:03:15;30.58;;;12.75;;
59167;SDS011;44948;55.046;73.266;2023-03-25T04:09:46;20.60;;;10.90;;
59167;SDS011;44948;55.046;73.266;2023-03-25T04:13:09;20.20;;;8.77;;
59167;SDS011;44948;55.046;73.266;2023-03-25T04:16:14;19.67;;;9.45;;
59167;SDS011;44948;55.046;73.266;2023-03-25T04:19:18;20.08;;;10.42;;
59167;SDS011;44948;55.046;73.266;2023-03-25T04:22:25;25.77;;;12.75;;
59167;SDS011;44948;55.046;73.266;2023-03-25T04:25:28;28.42;;;13.90;;
59167;SDS011;44948;55.046;73.266;2023-03-25T04:28:32;16.27;;;9.32;;
59167;SDS011;44948;55.046;73.266;2023-03-25T04:31:37;22.33;;;8.38;;
59167;SDS011;44948;55.046;73.266;2023-03-25T04:34:46;20.95;;;8.98;;
59167;SDS011;44948;55.046;73.266;2023-03-25T04:37:51;12.35;;;7.20;;
59167;SDS011;44948;55.046;73.266;2023-03-25T04:40:55;15.70;;;7.32;;
59167;SDS011;44948;55.046;73.266;2023-03-25T04:43:58;21.63;;;9.70;;
59167;SDS011;44948;55.046;73.266;2023-03-25T04:47:01;16.83;;;8.85;;
59167;SDS011;44948;55.046;73.266;2023-03-25T04:50:04;11.82;;;7.07;;
59167;SDS011;44948;55.046;73.266;2023-03-25T04:53:09;30.53;;;10.07;;
59167;SDS011;44948;55.046;73.266;2023-03-25T04:56:17;25.58;;;9.85;;
59167;SDS011;44948;55.046;73.266;2023-03-25T04:59:22;22.48;;;9.82;;
59167;SDS011;44948;55.046;73.266;2023-03-25T05:02:25;19.85;;;7.25;;
59167;SDS011;44948;55.046;73.266;2023-03-25T05:05:28;13.85;;;6.05;;
59167;SDS011;44948;55.046;73.266;2023-03-25T05:08:30;19.92;;;8.70;;
59167;SDS011;44948;55.046;73.266;2023-03-25T05:11:35;22.60;;;9.43;;
59167;SDS011;44948;55.046;73.266;2023-03-25T05:14:40;15.53;;;6.83;;
59167;SDS011;44948;55.046;73.266;2023-03-25T05:17:43;14.25;;;6.43;;
59167;SDS011;44948;55.046;73.266;2023-03-25T05:20:46;11.20;;;6.55;;
59167;SDS011;44948;55.046;73.266;2023-03-25T05:23:51;11.13;;;6.15;;
59167;SDS011;44948;55.046;73.266;2023-03-25T05:26:58;16.02;;;6.65;;
59167;SDS011;44948;55.046;73.266;2023-03-25T05:30:03;18.55;;;7.55;;
59167;SDS011;44948;55.046;73.266;2023-03-25T05:33:07;16.50;;;6.47;;
59167;SDS011;44948;55.046;73.266;2023-03-25T05:36:14;14.60;;;6.88;;
59167;SDS011;44948;55.046;73.266;2023-03-25T05:39:31;17.13;;;6.80;;
59167;SDS011;44948;55.046;73.266;2023-03-25T05:42:35;12.27;;;6.10;;
59167;SDS011;44948;55.046;73.266;2023-03-25T05:45:38;20.13;;;8.45;;
59167;SDS011;44948;55.046;73.266;2023-03-25T05:48:40;16.92;;;7.50;;
59167;SDS011;44948;55.046;73.266;2023-03-25T05:51:43;31.67;;;13.43;;
59167;SDS011;44948;55.046;73.266;2023-03-25T05:54:47;35.13;;;13.27;;
59167;SDS011;44948;55.046;73.266;2023-03-25T05:57:51;31.30;;;13.00;;
59167;SDS011;44948;55.046;73.266;2023-03-25T06:00:53;14.68;;;6.75;;
59167;SDS011;44948;55.046;73.266;2023-03-25T06:03:56;12.63;;;6.53;;
59167;SDS011;44948;55.046;73.266;2023-03-25T06:07:01;16.35;;;7.53;;
59167;SDS011;44948;55.046;73.266;2023-03-25T06:10:18;18.46;;;6.13;;
59167;SDS011;44948;55.046;73.266;2023-03-25T06:13:20;15.20;;;4.90;;
59167;SDS011;44948;55.046;73.266;2023-03-25T06:16:23;15.40;;;7.38;;
59167;SDS011;44948;55.046;73.266;2023-03-25T06:19:29;10.88;;;5.80;;
59167;SDS011;44948;55.046;73.266;2023-03-25T06:22:32;17.23;;;7.65;;
59167;SDS011;44948;55.046;73.266;2023-03-25T06:25:38;14.73;;;5.67;;
59167;SDS011;44948;55.046;73.266;2023-03-25T06:28:40;16.90;;;7.50;;
59167;SDS011;44948;55.046;73.266;2023-03-25T06:31:43;21.63;;;8.85;;
59167;SDS011;44948;55.046;73.266;2023-03-25T06:34:48;17.15;;;8.93;;
59167;SDS011;44948;55.046;73.266;2023-03-25T06:37:50;37.90;;;16.52;;
59167;SDS011;44948;55.046;73.266;2023-03-25T06:41:18;24.30;;;9.88;;
59167;SDS011;44948;55.046;73.266;2023-03-25T06:44:26;52.67;;;20.67;;
59167;SDS011;44948;55.046;73.266;2023-03-25T06:47:47;34.00;;;15.50;;
59167;SDS011;44948;55.046;73.266;2023-03-25T06:50:50;32.53;;;15.27;;
59167;SDS011;44948;55.046;73.266;2023-03-25T06:53:53;21.80;;;10.77;;
59167;SDS011;44948;55.046;73.266;2023-03-25T06:56:56;36.20;;;12.70;;
59167;SDS011;44948;55.046;73.266;2023-03-25T06:59:59;24.35;;;10.57;;
59167;SDS011;44948;55.046;73.266;2023-03-25T07:03:01;35.77;;;11.40;;
59167;SDS011;44948;55.046;73.266;2023-03-25T07:06:04;30.58;;;12.93;;
59167;SDS011;44948;55.046;73.266;2023-03-25T07:09:13;27.27;;;9.23;;
59167;SDS011;44948;55.046;73.266;2023-03-25T07:12:16;17.77;;;8.25;;
59167;SDS011;44948;55.046;73.266;2023-03-25T07:15:21;23.30;;;10.63;;
59167;SDS011;44948;55.046;73.266;2023-03-25T07:18:24;11.95;;;5.53;;
59167;SDS011;44948;55.046;73.266;2023-03-25T07:21:27;36.88;;;14.15;;
59167;SDS011;44948;55.046;73.266;2023-03-25T07:24:29;73.07;;;27.65;;
59167;SDS011;44948;55.046;73.266;2023-03-25T07:27:32;24.67;;;9.85;;
59167;SDS011;44948;55.046;73.266;2023-03-25T07:30:40;25.25;;;9.48;;
59167;SDS011;44948;55.046;73.266;2023-03-25T07:33:43;29.58;;;11.48;;
59167;SDS011;44948;55.046;73.266;2023-03-25T07:36:45;30.80;;;13.23;;
59167;SDS011;44948;55.046;73.266;2023-03-25T07:39:50;19.85;;;7.85;;
59167;SDS011;44948;55.046;73.266;2023-03-25T07:42:53;19.85;;;7.97;;
59167;SDS011;44948;55.046;73.266;2023-03-25T07:46:10;29.77;;;9.70;;
59167;SDS011;44948;55.046;73.266;2023-03-25T07:49:13;14.07;;;7.45;;
59167;SDS011;44948;55.046;73.266;2023-03-25T07:52:18;22.23;;;8.27;;
59167;SDS011;44948;55.046;73.266;2023-03-25T07:55:20;26.50;;;10.18;;
59167;SDS011;44948;55.046;73.266;2023-03-25T07:58:24;88.47;;;31.98;;
59167;SDS011;44948;55.046;73.266;2023-03-25T08:01:35;47.23;;;17.40;;
59167;SDS011;44948;55.046;73.266;2023-03-25T08:04:37;20.13;;;8.90;;
59167;SDS011;44948;55.046;73.266;2023-03-25T08:07:40;21.80;;;10.88;;
59167;SDS011;44948;55.046;73.266;2023-03-25T08:10:55;13.65;;;5.28;;
59167;SDS011;44948;55.046;73.266;2023-03-25T08:13:57;9.88;;;5.70;;
59167;SDS011;44948;55.046;73.266;2023-03-25T08:17:00;16.23;;;6.60;;
59167;SDS011;44948;55.046;73.266;2023-03-25T08:20:03;11.48;;;6.18;;
59167;SDS011;44948;55.046;73.266;2023-03-25T08:23:07;7.75;;;5.00;;
59167;SDS011;44948;55.046;73.266;2023-03-25T08:26:13;17.17;;;7.55;;
59167;SDS011;44948;55.046;73.266;2023-03-25T08:29:17;15.27;;;6.43;;
59167;SDS011;44948;55.046;73.266;2023-03-25T08:32:20;25.77;;;8.50;;
59167;SDS011;44948;55.046;73.266;2023-03-25T08:35:28;19.52;;;7.75;;
59167;SDS011;44948;55.046;73.266;2023-03-25T08:38:30;17.13;;;6.90;;
59167;SDS011;44948;55.046;73.266;2023-03-25T08:41:33;18.67;;;8.20;;
59167;SDS011;44948;55.046;73.266;2023-03-25T08:44:35;13.60;;;6.90;;
59167;SDS011;44948;55.046;73.266;2023-03-25T08:47:38;17.02;;;8.23;;
59167;SDS011;44948;55.046;73.266;2023-03-25T08:50:40;14.82;;;6.90;;
59167;SDS011;44948;55.046;73.266;2023-03-25T08:53:44;14.85;;;6.03;;
59167;SDS011;44948;55.046;73.266;2023-03-25T08:56:46;9.32;;;5.38;;
59167;SDS011;44948;55.046;73.266;2023-03-25T08:59:49;13.90;;;6.10;;
59167;SDS011;44948;55.046;73.266;2023-03-25T09:02:51;18.27;;;6.32;;
59167;SDS011;44948;55.046;73.266;2023-03-25T09:05:54;11.25;;;5.72;;
59167;SDS011;44948;55.046;73.266;2023-03-25T09:09:06;12.50;;;5.47;;
59167;SDS011;44948;55.046;73.266;2023-03-25T09:12:12;9.63;;;4.55;;
59167;SDS011;44948;55.046;73.266;2023-03-25T09:15:14;12.32;;;4.70;;
59167;SDS011;44948;55.046;73.266;2023-03-25T09:18:27;12.20;;;5.50;;
59167;SDS011;44948;55.046;73.266;2023-03-25T09:21:35;10.85;;;4.90;;
59167;SDS011;44948;55.046;73.266;2023-03-25T09:24:48;11.57;;;5.13;;
59167;SDS011;44948;55.046;73.266;2023-03-25T09:27:50;13.75;;;6.40;;
59167;SDS011;44948;55.046;73.266;2023-03-25T09:30:53;7.03;;;4.40;;
59167;SDS011;44948;55.046;73.266;2023-03-25T09:33:55;9.90;;;5.22;;
59167;SDS011;44948;55.046;73.266;2023-03-25T09:37:08;9.65;;;4.38;;
59167;SDS011;44948;55.046;73.266;2023-03-25T09:40:14;8.63;;;4.80;;
59167;SDS011;44948;55.046;73.266;2023-03-25T09:47:06;10.90;;;4.95;;
59167;SDS011;44948;55.046;73.266;2023-03-25T09:50:20;10.23;;;4.95;;
59167;SDS011;44948;55.046;73.266;2023-03-25T09:53:39;6.13;;;3.80;;
59167;SDS011;44948;55.046;73.266;2023-03-25T09:56:47;10.63;;;3.58;;
59167;SDS011;44948;55.046;73.266;2023-03-25T09:59:56;11.73;;;4.18;;
59167;SDS011;44948;55.046;73.266;2023-03-25T10:03:13;14.37;;;5.67;;
59167;SDS011;44948;55.046;73.266;2023-03-25T10:06:29;10.35;;;3.70;;
59167;SDS011;44948;55.046;73.266;2023-03-25T10:13:02;13.93;;;6.13;;
59167;SDS011;44948;55.046;73.266;2023-03-25T10:26:14;24.00;;;8.93;;
59167;SDS011;44948;55.046;73.266;2023-03-25T10:29:36;22.20;;;8.90;;
59167;SDS011;44948;55.046;73.266;2023-03-25T10:32:52;22.80;;;10.23;;
59167;SDS011;44948;55.046;73.266;2023-03-25T10:36:03;21.98;;;9.63;;
59167;SDS011;44948;55.046;73.266;2023-03-25T10:39:18;18.15;;;5.40;;
59167;SDS011;44948;55.046;73.266;2023-03-25T10:42:25;10.68;;;4.30;;
59167;SDS011;44948;55.046;73.266;2023-03-25T10:45:32;19.20;;;7.05;;
59167;SDS011;44948;55.046;73.266;2023-03-25T10:48:36;23.17;;;8.90;;
59167;SDS011;44948;55.046;73.266;2023-03-25T10:51:39;14.93;;;5.90;;
59167;SDS011;44948;55.046;73.266;2023-03-25T10:54:43;14.98;;;5.25;;
59167;SDS011;44948;55.046;73.266;2023-03-25T10:57:49;21.42;;;8.48;;
59167;SDS011;44948;55.046;73.266;2023-03-25T11:00:52;20.65;;;7.47;;
59167;SDS011;44948;55.046;73.266;2023-03-25T11:03:54;12.70;;;5.30;;
59167;SDS011;44948;55.046;73.266;2023-03-25T11:07:12;19.63;;;6.47;;
59167;SDS011;44948;55.046;73.266;2023-03-25T11:10:31;15.48;;;4.78;;
59167;SDS011;44948;55.046;73.266;2023-03-25T11:13:34;12.60;;;4.30;;
59167;SDS011;44948;55.046;73.266;2023-03-25T11:16:48;11.00;;;4.57;;
59167;SDS011;44948;55.046;73.266;2023-03-25T11:20:00;17.75;;;6.68;;
59167;SDS011;44948;55.046;73.266;2023-03-25T11:23:27;19.67;;;6.86;;
59167;SDS011;44948;55.046;73.266;2023-03-25T11:26:37;21.98;;;7.32;;
59167;SDS011;44948;55.046;73.266;2023-03-25T11:29:41;16.23;;;6.90;;
59167;SDS011;44948;55.046;73.266;2023-03-25T11:33:03;20.85;;;8.45;;
59167;SDS011;44948;55.046;73.266;2023-03-25T11:39:42;18.92;;;6.70;;
59167;SDS011;44948;55.046;73.266;2023-03-25T11:42:56;19.42;;;6.68;;
59167;SDS011;44948;55.046;73.266;2023-03-25T11:46:13;16.42;;;6.03;;
59167;SDS011;44948;55.046;73.266;2023-03-25T11:49:21;14.57;;;6.00;;
59167;SDS011;44948;55.046;73.266;2023-03-25T11:52:38;21.63;;;6.20;;
59167;SDS011;44948;55.046;73.266;2023-03-25T11:55:49;17.52;;;6.03;;
59167;SDS011;44948;55.046;73.266;2023-03-25T11:58:56;15.50;;;7.80;;
59167;SDS011;44948;55.046;73.266;2023-03-25T12:02:25;12.85;;;6.00;;
59167;SDS011;44948;55.046;73.266;2023-03-25T12:05:32;20.27;;;8.00;;
59167;SDS011;44948;55.046;73.266;2023-03-25T12:15:10;17.37;;;7.77;;
59167;SDS011;44948;55.046;73.266;2023-03-25T12:25:06;22.63;;;8.13;;
59167;SDS011;44948;55.046;73.266;2023-03-25T12:28:28;29.98;;;9.73;;
59167;SDS011;44948;55.046;73.266;2023-03-25T12:38:43;32.97;;;14.80;;
59167;SDS011;44948;55.046;73.266;2023-03-25T12:42:18;24.90;;;10.20;;
59167;SDS011;44948;55.046;73.266;2023-03-25T12:45:30;24.35;;;9.68;;
59167;SDS011;44948;55.046;73.266;2023-03-25T13:06:05;18.27;;;8.63;;
59167;SDS011;44948;55.046;73.266;2023-03-25T13:12:56;22.48;;;9.30;;
59167;SDS011;44948;55.046;73.266;2023-03-25T13:16:09;19.08;;;8.32;;
59167;SDS011;44948;55.046;73.266;2023-03-25T13:19:28;18.77;;;7.43;;
59167;SDS011;44948;55.046;73.266;2023-03-25T13:22:46;19.52;;;7.22;;
59167;SDS011;44948;55.046;73.266;2023-03-25T13:26:03;24.67;;;10.50;;
59167;SDS011;44948;55.046;73.266;2023-03-25T13:32:45;31.00;;;14.57;;
59167;SDS011;44948;55.046;73.266;2023-03-25T13:42:58;26.40;;;10.68;;
59167;SDS011;44948;55.046;73.266;2023-03-25T13:46:05;20.55;;;9.88;;
59167;SDS011;44948;55.046;73.266;2023-03-25T13:53:03;25.63;;;10.50;;
59167;SDS011;44948;55.046;73.266;2023-03-25T14:14:25;20.65;;;8.15;;
59167;SDS011;44948;55.046;73.266;2023-03-25T14:17:38;21.00;;;9.32;;
59167;SDS011;44948;55.046;73.266;2023-03-25T14:20:53;34.75;;;13.30;;
59167;SDS011;44948;55.046;73.266;2023-03-25T14:24:09;33.97;;;14.05;;
59167;SDS011;44948;55.046;73.266;2023-03-25T14:27:14;23.17;;;9.90;;
59167;SDS011;44948;55.046;73.266;2023-03-25T14:30:24;24.95;;;10.20;;
59167;SDS011;44948;55.046;73.266;2023-03-25T14:33:41;34.93;;;11.00;;
59167;SDS011;44948;55.046;73.266;2023-03-25T14:37:10;39.47;;;12.77;;
59167;SDS011;44948;55.046;73.266;2023-03-25T14:44:09;34.10;;;10.80;;
59167;SDS011;44948;55.046;73.266;2023-03-25T14:47:24;22.38;;;9.57;;
59167;SDS011;44948;55.046;73.266;2023-03-25T14:50:29;21.45;;;8.93;;
59167;SDS011;44948;55.046;73.266;2023-03-25T14:53:33;21.77;;;8.40;;
59167;SDS011;44948;55.046;73.266;2023-03-25T14:56:40;21.38;;;9.65;;
59167;SDS011;44948;55.046;73.266;2023-03-25T14:59:59;26.73;;;8.95;;
59167;SDS011;44948;55.046;73.266;2023-03-25T15:03:14;38.25;;;14.70;;
59167;SDS011;44948;55.046;73.266;2023-03-25T15:06:28;26.45;;;10.98;;
59167;SDS011;44948;55.046;73.266;2023-03-25T15:09:42;27.27;;;11.73;;
59167;SDS011;44948;55.046;73.266;2023-03-25T15:13:02;29.52;;;12.13;;
59167;SDS011;44948;55.046;73.266;2023-03-25T15:16:27;22.90;;;8.90;;
59167;SDS011;44948;55.046;73.266;2023-03-25T15:26:24;25.35;;;10.52;;
59167;SDS011;44948;55.046;73.266;2023-03-25T15:29:44;22.65;;;9.95;;
59167;SDS011;44948;55.046;73.266;2023-03-25T15:32:56;23.10;;;8.30;;
59167;SDS011;44948;55.046;73.266;2023-03-25T15:36:42;20.20;;;8.15;;
59167;SDS011;44948;55.046;73.266;2023-03-25T15:40:17;29.40;;;8.45;;
59167;SDS011;44948;55.046;73.266;2023-03-25T15:44:22;21.92;;;8.07;;
59167;SDS011;44948;55.046;73.266;2023-03-25T15:48:19;16.73;;;7.45;;
59167;SDS011;44948;55.046;73.266;2023-03-25T15:54:30;24.27;;;8.38;;
59167;SDS011;44948;55.046;73.266;2023-03-25T15:57:53;19.55;;;9.20;;
59167;SDS011;44948;55.046;73.266;2023-03-25T16:01:12;21.27;;;9.23;;
59167;SDS011;44948;55.046;73.266;2023-03-25T16:07:47;27.67;;;8.23;;
59167;SDS011;44948;55.046;73.266;2023-03-25T16:10:50;21.17;;;8.40;;
59167;SDS011;44948;55.046;73.266;2023-03-25T16:14:04;17.50;;;7.47;;
59167;SDS011;44948;55.046;73.266;2023-03-25T16:17:10;22.50;;;8.52;;
59167;SDS011;44948;55.046;73.266;2023-03-25T16:20:27;17.35;;;8.68;;
59167;SDS011;44948;55.046;73.266;2023-03-25T16:23:34;24.17;;;8.13;;
59167;SDS011;44948;55.046;73.266;2023-03-25T16:26:44;22.08;;;7.97;;
59167;SDS011;44948;55.046;73.266;2023-03-25T16:29:52;21.50;;;7.38;;
59167;SDS011;44948;55.046;73.266;2023-03-25T16:33:18;15.95;;;6.75;;
59167;SDS011;44948;55.046;73.266;2023-03-25T16:36:26;20.95;;;8.35;;
59167;SDS011;44948;55.046;73.266;2023-03-25T16:39:34;16.20;;;7.35;;
59167;SDS011;44948;55.046;73.266;2023-03-25T16:42:38;20.33;;;7.20;;
59167;SDS011;44948;55.046;73.266;2023-03-25T16:45:40;23.48;;;8.18;;
59167;SDS011;44948;55.046;73.266;2023-03-25T16:48:51;18.40;;;6.25;;
59167;SDS011;44948;55.046;73.266;2023-03-25T16:51:55;17.15;;;5.93;;
59167;SDS011;44948;55.046;73.266;2023-03-25T16:55:12;14.90;;;5.93;;
59167;SDS011;44948;55.046;73.266;2023-03-25T16:58:32;20.38;;;7.10;;
59167;SDS011;44948;55.046;73.266;2023-03-25T17:01:48;16.27;;;5.78;;
59167;SDS011;44948;55.046;73.266;2023-03-25T17:04:53;22.70;;;6.35;;
59167;SDS011;44948;55.046;73.266;2023-03-25T17:07:57;17.60;;;5.30;;
59167;SDS011;44948;55.046;73.266;2023-03-25T17:11:07;16.45;;;5.90;;
59167;SDS011;44948;55.046;73.266;2023-03-25T17:14:16;20.10;;;5.18;;
59167;SDS011;44948;55.046;73.266;2023-03-25T17:20:43;17.98;;;6.50;;
59167;SDS011;44948;55.046;73.266;2023-03-25T17:23:47;16.63;;;7.00;;
59167;SDS011;44948;55.046;73.266;2023-03-25T17:27:03;18.17;;;5.50;;
59167;SDS011;44948;55.046;73.266;2023-03-25T17:30:15;14.40;;;5.40;;
59167;SDS011;44948;55.046;73.266;2023-03-25T17:33:54;17.67;;;5.50;;
59167;SDS011;44948;55.046;73.266;2023-03-25T17:37:11;18.63;;;5.80;;
59167;SDS011;44948;55.046;73.266;2023-03-25T17:40:20;19.85;;;5.57;;
59167;SDS011;44948;55.046;73.266;2023-03-25T17:43:26;15.55;;;5.55;;
59167;SDS011;44948;55.046;73.266;2023-03-25T17:46:44;21.16;;;5.93;;
59167;SDS011;44948;55.046;73.266;2023-03-25T17:49:56;22.63;;;5.70;;
59167;SDS011;44948;55.046;73.266;2023-03-25T17:52:59;19.55;;;5.07;;
59167;SDS011;44948;55.046;73.266;2023-03-25T17:56:08;21.65;;;5.85;;
59167;SDS011;44948;55.046;73.266;2023-03-25T17:59:15;18.00;;;6.03;;
59167;SDS011;44948;55.046;73.266;2023-03-25T18:02:29;18.30;;;5.70;;
59167;SDS011;44948;55.046;73.266;2023-03-25T18:05:34;21.20;;;5.60;;
59167;SDS011;44948;55.046;73.266;2023-03-25T18:08:41;20.20;;;4.93;;
59167;SDS011;44948;55.046;73.266;2023-03-25T18:11:44;14.95;;;5.43;;
59167;SDS011;44948;55.046;73.266;2023-03-25T18:14:48;19.73;;;6.30;;
59167;SDS011;44948;55.046;73.266;2023-03-25T18:17:51;17.42;;;6.75;;
59167;SDS011;44948;55.046;73.266;2023-03-25T18:20:55;16.73;;;5.15;;
59167;SDS011;44948;55.046;73.266;2023-03-25T18:24:00;15.90;;;6.10;;
59167;SDS011;44948;55.046;73.266;2023-03-25T18:27:08;17.92;;;5.90;;
59167;SDS011;44948;55.046;73.266;2023-03-25T18:30:15;16.02;;;6.47;;
59167;SDS011;44948;55.046;73.266;2023-03-25T18:33:42;17.48;;;5.93;;
59167;SDS011;44948;55.046;73.266;2023-03-25T18:36:46;22.90;;;6.38;;
59167;SDS011;44948;55.046;73.266;2023-03-25T18:39:49;14.75;;;6.03;;
59167;SDS011;44948;55.046;73.266;2023-03-25T18:42:52;18.17;;;5.90;;
59167;SDS011;44948;55.046;73.266;2023-03-25T18:45:57;15.73;;;5.97;;
59167;SDS011;44948;55.046;73.266;2023-03-25T18:49:00;17.85;;;6.30;;
59167;SDS011;44948;55.046;73.266;2023-03-25T18:52:03;12.68;;;5.93;;
59167;SDS011;44948;55.046;73.266;2023-03-25T18:55:06;13.50;;;6.15;;
59167;SDS011;44948;55.046;73.266;2023-03-25T18:58:21;15.35;;;5.78;;
59167;SDS011;44948;55.046;73.266;2023-03-25T19:01:25;11.32;;;5.30;;
59167;SDS011;44948;55.046;73.266;2023-03-25T19:04:27;16.02;;;5.65;;
59167;SDS011;44948;55.046;73.266;2023-03-25T19:07:38;14.85;;;5.80;;
59167;SDS011;44948;55.046;73.266;2023-03-25T19:10:41;12.40;;;5.32;;
59167;SDS011;44948;55.046;73.266;2023-03-25T19:13:49;18.38;;;5.82;;
59167;SDS011;44948;55.046;73.266;2023-03-25T19:17:01;17.25;;;5.47;;
59167;SDS011;44948;55.046;73.266;2023-03-25T19:20:08;13.50;;;5.55;;
59167;SDS011;44948;55.046;73.266;2023-03-25T19:23:15;20.08;;;6.13;;
59167;SDS011;44948;55.046;73.266;2023-03-25T19:26:18;18.88;;;6.72;;
59167;SDS011;44948;55.046;73.266;2023-03-25T19:29:20;16.52;;;6.60;;
59167;SDS011;44948;55.046;73.266;2023-03-25T19:32:25;16.25;;;5.75;;
59167;SDS011;44948;55.046;73.266;2023-03-25T19:35:30;15.00;;;5.85;;
59167;SDS011;44948;55.046;73.266;2023-03-25T19:38:33;15.38;;;7.05;;
59167;SDS011;44948;55.046;73.266;2023-03-25T19:41:45;14.55;;;5.50;;
59167;SDS011;44948;55.046;73.266;2023-03-25T19:45:01;17.10;;;5.75;;
59167;SDS011;44948;55.046;73.266;2023-03-25T19:48:05;12.13;;;5.13;;
59167;SDS011;44948;55.046;73.266;2023-03-25T19:51:07;11.77;;;5.18;;
59167;SDS011;44948;55.046;73.266;2023-03-25T19:54:10;12.73;;;5.53;;
59167;SDS011;44948;55.046;73.266;2023-03-25T19:57:14;12.68;;;4.95;;
59167;SDS011;44948;55.046;73.266;2023-03-25T20:00:21;17.70;;;6.03;;
59167;SDS011;44948;55.046;73.266;2023-03-25T20:03:30;21.67;;;6.63;;
59167;SDS011;44948;55.046;73.266;2023-03-25T20:06:35;11.48;;;5.57;;
59167;SDS011;44948;55.046;73.266;2023-03-25T20:09:37;16.15;;;6.30;;
59167;SDS011;44948;55.046;73.266;2023-03-25T20:12:40;17.58;;;5.30;;
59167;SDS011;44948;55.046;73.266;2023-03-25T20:15:44;17.15;;;5.75;;
59167;SDS011;44948;55.046;73.266;2023-03-25T20:18:46;12.80;;;5.30;;
59167;SDS011;44948;55.046;73.266;2023-03-25T20:21:49;16.98;;;6.15;;
59167;SDS011;44948;55.046;73.266;2023-03-25T20:24:55;19.88;;;6.43;;
59167;SDS011;44948;55.046;73.266;2023-03-25T20:27:57;15.93;;;6.70;;
59167;SDS011;44948;55.046;73.266;2023-03-25T20:30:59;16.77;;;6.72;;
59167;SDS011;44948;55.046;73.266;2023-03-25T20:34:01;11.43;;;5.80;;
59167;SDS011;44948;55.046;73.266;2023-03-25T20:37:05;13.43;;;5.25;;
59167;SDS011;44948;55.046;73.266;2023-03-25T20:40:09;15.38;;;4.28;;
59167;SDS011;44948;55.046;73.266;2023-03-25T20:43:13;12.67;;;5.00;;
59167;SDS011;44948;55.046;73.266;2023-03-25T20:46:15;11.13;;;5.07;;
59167;SDS011;44948;55.046;73.266;2023-03-25T20:49:17;9.98;;;4.95;;
59167;SDS011;44948;55.046;73.266;2023-03-25T20:52:32;13.23;;;4.85;;
59167;SDS011;44948;55.046;73.266;2023-03-25T20:55:36;14.65;;;5.10;;
59167;SDS011;44948;55.046;73.266;2023-03-25T20:58:48;16.00;;;5.15;;